createdAt,value
2022-08-11T00:00:52.211Z,4.3
2022-08-11T00:01:55.939Z,2.9
2022-08-11T00:02:53.453Z,2.8
2022-08-11T00:03:56.595Z,4.0
2022-08-11T00:05:55.013Z,2.7
2022-08-11T00:06:53.255Z,5.4
2022-08-11T00:07:54.169Z,3.1
2022-08-11T00:08:52.514Z,2.4
2022-08-11T00:09:52.412Z,2.8
2022-08-11T00:10:55.677Z,2.7
2022-08-11T00:11:58.813Z,3.4
2022-08-11T00:12:53.513Z,2.1
2022-08-11T00:13:51.958Z,2.0
2022-08-11T00:14:59.540Z,1.4
2022-08-11T00:15:52.166Z,3.5
2022-08-11T00:17:01.705Z,1.4
2022-08-11T00:17:58.006Z,1.8
2022-08-11T00:18:53.837Z,2.1
2022-08-11T00:20:13.297Z,3.9
2022-08-11T00:20:52.349Z,2.5
2022-08-11T00:22:03.113Z,5.8
2022-08-11T00:22:51.806Z,1.9
2022-08-11T00:24:00.696Z,3.0
2022-08-11T00:24:56.052Z,1.6
2022-08-11T00:26:52.952Z,1.7
2022-08-11T00:27:51.688Z,3.4
2022-08-11T00:28:52.336Z,1.2
2022-08-11T00:29:55.217Z,1.4
2022-08-11T00:30:54.158Z,0.9
2022-08-11T00:31:54.005Z,1.3
2022-08-11T00:32:58.811Z,0.4
2022-08-11T00:34:52.292Z,0.5
2022-08-11T00:35:57.498Z,2.0
2022-08-11T00:36:53.902Z,1.8
2022-08-11T00:37:55.381Z,2.5
2022-08-11T00:38:54.611Z,2.0
2022-08-11T00:39:54.791Z,3.8
2022-08-11T00:41:01.816Z,1.2
2022-08-11T00:43:02.075Z,1.4
2022-08-11T00:44:09.488Z,0.8
2022-08-11T00:45:04.347Z,1.2
2022-08-11T00:46:09.499Z,0.5
2022-08-11T00:48:00.209Z,2.4
2022-08-11T00:49:11.783Z,0.9
2022-08-11T00:50:09.252Z,1.0
2022-08-11T00:51:07.022Z,0.6
2022-08-11T00:52:08.033Z,2.9
2022-08-11T00:53:00.124Z,1.5
2022-08-11T00:54:07.271Z,1.5
2022-08-11T00:55:09.479Z,2.7
2022-08-11T00:56:01.444Z,1.1
2022-08-11T00:57:35.997Z,0.9
2022-08-11T00:58:09.460Z,1.7
2022-08-11T00:59:34.306Z,2.6
2022-08-11T01:00:00.181Z,5.3
2022-08-11T01:01:09.521Z,1.4
2022-08-11T01:01:59.150Z,1.6
2022-08-11T01:03:09.551Z,2.7
2022-08-11T01:04:01.148Z,0.9
2022-08-11T01:05:04.357Z,2.4
2022-08-11T01:06:04.656Z,1.5
2022-08-11T01:07:09.458Z,0.8
2022-08-11T01:08:03.364Z,3.5
2022-08-11T01:09:09.507Z,3.2
2022-08-11T01:10:07.562Z,3.3
2022-08-11T01:11:09.462Z,3.1
2022-08-11T01:12:09.515Z,1.3
2022-08-11T01:13:09.451Z,2.0
2022-08-11T01:14:01.157Z,1.0
2022-08-11T01:15:09.495Z,1.4
2022-08-11T01:16:09.493Z,1.8
2022-08-11T01:17:08.956Z,2.0
2022-08-11T01:18:09.453Z,2.1
2022-08-11T01:19:09.519Z,1.0
2022-08-11T01:20:45.728Z,2.5
2022-08-11T01:21:09.460Z,2.6
2022-08-11T01:22:08.157Z,3.7
2022-08-11T01:23:09.451Z,3.4
2022-08-11T01:24:10.290Z,2.1
2022-08-11T01:25:09.467Z,1.5
2022-08-11T01:26:09.346Z,4.6
2022-08-11T01:27:19.378Z,4.6
2022-08-11T01:28:09.435Z,3.6
2022-08-11T01:29:01.108Z,2.0
2022-08-11T01:30:09.450Z,3.7
2022-08-11T01:31:09.535Z,2.7
2022-08-11T01:32:09.520Z,3.0
2022-08-11T01:33:08.711Z,5.3
2022-08-11T01:34:09.431Z,2.2
2022-08-11T01:35:01.266Z,4.1
2022-08-11T01:36:00.142Z,3.0
2022-08-11T01:37:00.188Z,2.5
2022-08-11T01:38:09.454Z,2.8
2022-08-11T01:39:09.527Z,3.4
2022-08-11T01:40:01.156Z,3.1
2022-08-11T01:41:09.471Z,3.9
2022-08-11T01:42:17.512Z,1.7
2022-08-11T01:43:13.460Z,1.0
2022-08-11T01:44:15.940Z,3.6
2022-08-11T01:45:08.246Z,1.1
2022-08-11T01:45:56.034Z,2.2
2022-08-11T01:47:04.676Z,0.8
2022-08-11T01:47:57.386Z,2.5
2022-08-11T01:48:59.619Z,1.4
2022-08-11T01:50:08.228Z,2.6
2022-08-11T01:51:09.465Z,3.5
2022-08-11T01:52:09.507Z,4.8
2022-08-11T01:53:09.641Z,2.1
2022-08-11T01:54:01.645Z,1.6
2022-08-11T01:55:58.071Z,2.3
2022-08-11T01:57:03.567Z,4.4
2022-08-11T01:58:02.864Z,1.7
2022-08-11T01:58:58.681Z,1.9
2022-08-11T01:59:58.873Z,2.0
2022-08-11T02:01:06.139Z,2.7
2022-08-11T02:01:59.961Z,0.7
2022-08-11T02:03:04.607Z,2.5
2022-08-11T02:04:03.458Z,5.5
2022-08-11T02:05:03.855Z,1.6
2022-08-11T02:06:02.329Z,2.8
2022-08-11T02:06:56.833Z,3.3
2022-08-11T02:08:08.333Z,2.7
2022-08-11T02:09:06.546Z,1.5
2022-08-11T02:10:13.522Z,3.2
2022-08-11T02:11:08.431Z,2.2
2022-08-11T02:11:56.583Z,2.9
2022-08-11T02:12:58.286Z,3.6
2022-08-11T02:14:04.663Z,2.3
2022-08-11T02:15:08.720Z,2.6
2022-08-11T02:15:56.933Z,2.4
2022-08-11T02:17:08.443Z,2.5
2022-08-11T02:18:00.074Z,2.3
2022-08-11T02:19:10.719Z,1.6
2022-08-11T02:20:03.382Z,2.9
2022-08-11T02:21:06.093Z,1.5
2022-08-11T02:22:10.869Z,1.6
2022-08-11T02:23:09.027Z,2.9
2022-08-11T02:24:05.099Z,1.8
2022-08-11T02:25:06.200Z,1.7
2022-08-11T02:26:00.242Z,1.1
2022-08-11T02:27:02.864Z,2.5
2022-08-11T02:28:03.892Z,3.5
2022-08-11T02:28:58.036Z,1.2
2022-08-11T02:30:05.289Z,1.5
2022-08-11T02:32:15.525Z,1.0
2022-08-11T02:32:24.052Z,2.1
2022-08-11T02:34:00.781Z,1.4
2022-08-11T02:35:00.639Z,1.0
2022-08-11T02:36:04.494Z,2.1
2022-08-11T02:37:02.087Z,2.8
2022-08-11T02:38:01.129Z,2.6
2022-08-11T02:39:02.937Z,1.9
2022-08-11T02:39:58.997Z,0.8
2022-08-11T02:41:02.620Z,1.9
2022-08-11T02:42:32.857Z,1.4
2022-08-11T02:43:05.233Z,1.4
2022-08-11T02:43:58.611Z,1.2
2022-08-11T02:44:58.559Z,1.2
2022-08-11T02:46:07.342Z,1.2
2022-08-11T02:47:06.513Z,1.6
2022-08-11T02:48:16.188Z,1.5
2022-08-11T02:49:09.147Z,3.4
2022-08-11T02:50:07.801Z,1.6
2022-08-11T02:51:05.190Z,2.7
2022-08-11T02:52:07.947Z,0.6
2022-08-11T02:53:04.366Z,1.0
2022-08-11T02:54:05.633Z,2.9
2022-08-11T02:55:04.331Z,3.2
2022-08-11T02:56:05.536Z,1.0
2022-08-11T02:58:03.651Z,3.8
2022-08-11T02:59:09.407Z,1.5
2022-08-11T02:59:57.546Z,1.3
2022-08-11T03:01:01.899Z,2.9
2022-08-11T03:02:05.197Z,1.0
2022-08-11T03:03:06.764Z,0.9
2022-08-11T03:04:01.182Z,1.1
2022-08-11T03:05:03.423Z,1.4
2022-08-11T03:05:56.140Z,0.9
2022-08-11T03:07:00.302Z,1.6
2022-08-11T03:08:00.097Z,2.9
2022-08-11T03:11:17.190Z,4.1
2022-08-11T03:13:03.935Z,2.9
2022-08-11T03:14:07.905Z,2.5
2022-08-11T03:15:05.026Z,2.2
2022-08-11T03:16:59.245Z,1.9
2022-08-11T03:18:05.017Z,1.3
2022-08-11T03:19:07.272Z,1.7
2022-08-11T03:20:00.078Z,1.1
2022-08-11T03:20:55.389Z,1.1
2022-08-11T03:22:06.456Z,3.1
2022-08-11T03:23:01.964Z,1.8
2022-08-11T03:24:08.224Z,2.6
2022-08-11T03:25:12.374Z,1.8
2022-08-11T03:26:02.524Z,2.0
2022-08-11T03:27:00.077Z,2.0
2022-08-11T03:28:04.911Z,2.1
2022-08-11T03:29:02.725Z,2.6
2022-08-11T03:30:01.104Z,2.6
2022-08-11T03:31:02.415Z,2.4
2022-08-11T03:33:10.203Z,1.6
2022-08-11T03:34:06.239Z,1.2
2022-08-11T03:35:56.646Z,1.3
2022-08-11T03:37:17.603Z,1.7
2022-08-11T03:39:01.190Z,1.5
2022-08-11T03:42:02.425Z,1.9
2022-08-11T03:42:09.419Z,2.4
2022-08-11T03:43:03.529Z,2.4
2022-08-11T03:44:05.949Z,2.6
2022-08-11T03:47:00.067Z,3.2
2022-08-11T03:49:05.424Z,1.7
2022-08-11T03:49:59.178Z,3.1
2022-08-11T03:51:07.605Z,1.7
2022-08-11T03:53:07.202Z,1.4
2022-08-11T03:55:07.644Z,1.2
2022-08-11T03:56:09.407Z,1.5
2022-08-11T03:57:04.046Z,2.2
2022-08-11T03:58:09.393Z,3.0
2022-08-11T03:59:09.353Z,1.6
2022-08-11T04:00:10.362Z,1.6
2022-08-11T04:01:09.457Z,2.9
2022-08-11T04:03:00.064Z,2.4
2022-08-11T04:04:09.336Z,1.1
2022-08-11T04:05:09.390Z,1.5
2022-08-11T04:06:12.001Z,1.2
2022-08-11T04:07:09.356Z,2.4
2022-08-11T04:08:09.365Z,1.3
2022-08-11T04:09:09.370Z,0.9
2022-08-11T04:10:09.391Z,1.5
2022-08-11T04:11:09.373Z,2.7
2022-08-11T04:12:09.382Z,2.9
2022-08-11T04:13:09.351Z,2.8
2022-08-11T04:14:18.733Z,1.8
2022-08-11T04:15:18.686Z,2.7
2022-08-11T04:16:11.383Z,3.0
2022-08-11T04:17:05.648Z,2.9
2022-08-11T04:18:01.191Z,2.9
2022-08-11T04:19:00.096Z,2.0
2022-08-11T04:20:09.341Z,3.4
2022-08-11T04:21:09.343Z,1.9
2022-08-11T04:22:07.387Z,1.9
2022-08-11T04:23:08.305Z,3.7
2022-08-11T04:24:36.727Z,4.4
2022-08-11T04:25:01.159Z,4.4
2022-08-11T04:26:01.364Z,2.2
2022-08-11T04:27:14.237Z,2.3
2022-08-11T04:28:09.409Z,2.5
2022-08-11T04:29:09.737Z,2.7
2022-08-11T04:30:09.155Z,4.2
2022-08-11T04:31:00.065Z,4.2
2022-08-11T04:32:08.259Z,6.2
2022-08-11T04:33:00.113Z,6.2
2022-08-11T04:36:06.883Z,5.7
2022-08-11T04:38:09.338Z,4.0
2022-08-11T04:39:00.054Z,4.0
2022-08-11T04:40:57.254Z,2.8
2022-08-11T04:43:09.354Z,3.1
2022-08-11T04:44:11.397Z,4.3
2022-08-11T04:45:04.005Z,4.3
2022-08-11T04:46:09.476Z,2.8
2022-08-11T04:46:58.554Z,2.8
2022-08-11T04:48:09.343Z,2.2
2022-08-11T04:49:10.460Z,2.8
2022-08-11T04:50:18.114Z,2.8
2022-08-11T04:51:16.886Z,2.0
2022-08-11T04:52:18.651Z,2.8
2022-08-11T04:53:09.358Z,4.5
2022-08-11T04:54:16.771Z,4.4
2022-08-11T04:55:08.614Z,2.7
2022-08-11T04:56:09.310Z,3.5
2022-08-11T04:57:09.002Z,4.7
2022-08-11T04:58:13.679Z,4.0
2022-08-11T04:59:18.766Z,3.7
2022-08-11T05:00:09.294Z,3.6
2022-08-11T05:01:15.908Z,3.9
2022-08-11T05:02:03.986Z,3.9
2022-08-11T05:03:09.314Z,3.3
2022-08-11T05:04:18.633Z,3.0
2022-08-11T05:05:07.406Z,3.0
2022-08-11T05:06:09.294Z,3.6
2022-08-11T05:07:08.441Z,3.6
2022-08-11T05:08:09.304Z,3.0
2022-08-11T05:09:07.175Z,3.0
2022-08-11T05:10:03.915Z,3.3
2022-08-11T05:11:03.684Z,2.4
2022-08-11T05:12:02.063Z,1.9
2022-08-11T05:12:54.597Z,3.9
2022-08-11T05:14:10.638Z,5.4
2022-08-11T05:15:02.822Z,5.4
2022-08-11T05:16:04.116Z,4.4
2022-08-11T05:17:04.605Z,3.7
2022-08-11T05:18:12.838Z,2.3
2022-08-11T05:19:03.075Z,2.3
2022-08-11T05:20:00.874Z,3.9
2022-08-11T05:21:05.104Z,9.2
2022-08-11T05:22:07.036Z,3.9
2022-08-11T05:23:02.125Z,4.2
2022-08-11T05:24:14.472Z,5.8
2022-08-11T05:25:09.025Z,5.8
2022-08-11T05:26:44.420Z,4.3
2022-08-11T05:27:02.399Z,4.2
2022-08-11T05:28:13.320Z,5.8
2022-08-11T05:29:19.423Z,5.8
2022-08-11T05:30:07.486Z,5.5
2022-08-11T05:31:06.457Z,3.9
2022-08-11T05:32:09.994Z,4.4
2022-08-11T05:33:13.822Z,3.5
2022-08-11T05:34:04.500Z,3.5
2022-08-11T05:34:54.676Z,2.2
2022-08-11T05:36:03.327Z,2.9
2022-08-11T05:37:11.597Z,2.1
2022-08-11T05:38:01.280Z,2.2
2022-08-11T05:39:08.948Z,1.7
2022-08-11T05:40:05.311Z,2.6
2022-08-11T05:41:04.092Z,2.5
2022-08-11T05:42:07.295Z,3.4
2022-08-11T05:43:06.043Z,3.0
2022-08-11T05:44:19.933Z,2.8
2022-08-11T05:45:04.030Z,2.7
2022-08-11T05:46:13.111Z,2.9
2022-08-11T05:47:01.370Z,1.6
2022-08-11T05:48:01.468Z,2.7
2022-08-11T05:49:02.477Z,5.5
2022-08-11T05:50:01.840Z,2.7
2022-08-11T05:51:10.489Z,1.7
2022-08-11T05:52:05.424Z,4.5
2022-08-11T05:53:00.798Z,2.1
2022-08-11T05:54:04.961Z,3.7
2022-08-11T05:55:06.139Z,3.5
2022-08-11T05:56:03.867Z,2.4
2022-08-11T05:56:56.831Z,2.6
2022-08-11T05:57:57.685Z,5.1
2022-08-11T05:58:53.423Z,2.5
2022-08-11T05:59:59.325Z,3.6
2022-08-11T06:00:51.856Z,6.3
2022-08-11T06:01:52.741Z,3.9
2022-08-11T06:02:57.719Z,6.7
2022-08-11T06:04:03.424Z,5.3
2022-08-11T06:04:57.897Z,6.7
2022-08-11T06:05:54.106Z,4.6
2022-08-11T06:06:54.642Z,7.2
2022-08-11T06:07:54.582Z,5.3
2022-08-11T06:08:55.952Z,6.1
2022-08-11T06:09:52.535Z,5.9
2022-08-11T06:10:51.608Z,5.8
2022-08-11T06:11:51.979Z,7.8
2022-08-11T06:12:56.122Z,7.0
2022-08-11T06:13:53.049Z,6.1
2022-08-11T06:14:55.205Z,7.1
2022-08-11T06:15:53.344Z,7.5
2022-08-11T06:16:55.448Z,7.2
2022-08-11T06:17:52.141Z,11.9
2022-08-11T06:18:51.812Z,6.6
2022-08-11T06:20:04.206Z,8.2
2022-08-11T06:20:52.587Z,10.1
2022-08-11T06:21:53.390Z,6.8
2022-08-11T06:23:51.659Z,6.3
2022-08-11T06:24:58.055Z,3.8
2022-08-11T06:25:56.102Z,4.4
2022-08-11T06:27:11.767Z,1.8
2022-08-11T06:27:57.773Z,3.5
2022-08-11T06:28:51.625Z,3.7
2022-08-11T06:29:54.812Z,4.2
2022-08-11T06:30:51.975Z,2.3
2022-08-11T06:31:58.695Z,2.5
2022-08-11T06:32:55.631Z,2.7
2022-08-11T06:33:57.387Z,2.9
2022-08-11T06:35:05.414Z,4.4
2022-08-11T06:36:07.757Z,2.2
2022-08-11T06:36:58.380Z,3.6
2022-08-11T06:38:01.337Z,5.1
2022-08-11T06:39:06.890Z,1.7
2022-08-11T06:40:08.079Z,2.9
2022-08-11T06:41:05.268Z,3.6
2022-08-11T06:42:02.005Z,5.3
2022-08-11T06:42:57.563Z,5.7
2022-08-11T06:44:05.325Z,3.4
2022-08-11T06:45:05.278Z,4.8
2022-08-11T06:46:04.080Z,2.2
2022-08-11T06:46:54.782Z,4.1
2022-08-11T06:47:52.833Z,54.9
2022-08-11T06:48:54.315Z,59.1
2022-08-11T06:50:00.958Z,29.0
2022-08-11T06:51:06.070Z,40.0
2022-08-11T06:51:51.498Z,30.8
2022-08-11T06:52:55.191Z,18.9
2022-08-11T06:54:04.558Z,15.0
2022-08-11T06:54:58.189Z,10.2
2022-08-11T06:56:01.313Z,6.2
2022-08-11T06:57:28.266Z,6.0
2022-08-11T06:58:00.784Z,4.9
2022-08-11T06:59:01.262Z,5.7
2022-08-11T07:00:03.670Z,6.5
2022-08-11T07:00:57.567Z,9.0
2022-08-11T07:02:05.739Z,8.6
2022-08-11T07:04:01.892Z,9.0
2022-08-11T07:05:58.647Z,9.2
2022-08-11T07:07:16.071Z,10.8
2022-08-11T07:09:18.571Z,6.3
2022-08-11T07:11:17.981Z,7.7
2022-08-11T07:13:04.062Z,5.9
2022-08-11T07:14:04.390Z,5.8
2022-08-11T07:15:03.859Z,7.8
2022-08-11T07:16:12.769Z,11.3
2022-08-11T07:16:53.909Z,15.6
2022-08-11T07:19:02.306Z,21.1
2022-08-11T07:20:08.650Z,22.7
2022-08-11T07:22:03.913Z,9.6
2022-08-11T07:23:07.250Z,6.9
2022-08-11T07:24:04.439Z,6.6
2022-08-11T07:25:09.693Z,6.1
2022-08-11T07:26:04.081Z,13.0
2022-08-11T07:27:04.852Z,6.7
2022-08-11T07:28:12.550Z,10.0
2022-08-11T07:28:56.617Z,8.6
2022-08-11T07:29:53.953Z,4.9
2022-08-11T07:30:54.923Z,6.3
2022-08-11T07:31:54.186Z,5.9
2022-08-11T07:32:54.937Z,6.4
2022-08-11T07:34:06.917Z,6.1
2022-08-11T07:35:00.806Z,6.1
2022-08-11T07:35:56.530Z,3.9
2022-08-11T07:36:54.617Z,4.9
2022-08-11T07:38:02.136Z,7.2
2022-08-11T07:38:54.759Z,9.4
2022-08-11T07:39:54.368Z,7.8
2022-08-11T07:40:52.401Z,19.6
2022-08-11T07:45:02.786Z,20.8
2022-08-11T07:46:00.707Z,7.8
2022-08-11T07:47:02.480Z,11.5
2022-08-11T07:48:02.518Z,9.0
2022-08-11T07:49:01.421Z,10.4
2022-08-11T07:50:03.188Z,8.3
2022-08-11T07:51:00.848Z,6.2
2022-08-11T07:52:01.300Z,3.8
2022-08-11T07:52:52.887Z,5.3
2022-08-11T07:53:58.317Z,4.9
2022-08-11T07:54:51.792Z,6.3
2022-08-11T07:55:54.293Z,6.3
2022-08-11T07:58:16.561Z,4.3
2022-08-11T08:00:04.634Z,3.0
2022-08-11T08:02:01.760Z,2.9
2022-08-11T08:03:00.848Z,1.8
2022-08-11T08:04:01.726Z,3.4
2022-08-11T08:05:01.536Z,1.7
2022-08-11T08:06:01.131Z,3.6
2022-08-11T08:07:01.287Z,4.3
2022-08-11T08:09:01.451Z,2.6
2022-08-11T08:10:01.902Z,3.8
2022-08-11T08:11:01.186Z,2.2
2022-08-11T08:12:01.042Z,3.9
2022-08-11T08:13:01.016Z,5.2
2022-08-11T08:14:01.227Z,5.2
2022-08-11T08:15:02.983Z,6.1
2022-08-11T08:16:01.321Z,4.2
2022-08-11T08:17:00.959Z,3.7
2022-08-11T08:18:20.360Z,5.7
2022-08-11T08:18:51.323Z,3.4
2022-08-11T08:19:51.613Z,3.6
2022-08-11T08:20:52.612Z,5.6
2022-08-11T08:21:52.338Z,4.5
2022-08-11T08:22:57.155Z,7.4
2022-08-11T08:23:53.086Z,2.7
2022-08-11T08:24:51.981Z,4.0
2022-08-11T08:25:53.640Z,4.4
2022-08-11T08:26:59.549Z,3.7
2022-08-11T08:27:53.115Z,3.1
2022-08-11T08:28:51.504Z,2.6
2022-08-11T08:30:00.619Z,4.6
2022-08-11T08:30:52.722Z,1.9
2022-08-11T08:31:53.181Z,2.6
2022-08-11T08:32:53.025Z,2.3
2022-08-11T08:33:52.250Z,3.4
2022-08-11T08:34:53.246Z,2.2
2022-08-11T08:36:03.680Z,2.7
2022-08-11T08:36:53.063Z,4.2
2022-08-11T08:37:53.309Z,1.9
2022-08-11T08:38:54.745Z,3.6
2022-08-11T08:39:51.841Z,2.4
2022-08-11T08:41:55.450Z,1.5
2022-08-11T08:43:59.878Z,3.3
2022-08-11T08:44:57.474Z,4.3
2022-08-11T08:45:56.475Z,1.8
2022-08-11T08:48:01.873Z,3.1
2022-08-11T08:49:56.267Z,3.8
2022-08-11T08:51:08.061Z,4.5
2022-08-11T08:52:01.425Z,2.6
2022-08-11T08:52:59.023Z,5.7
2022-08-11T08:53:56.522Z,3.8
2022-08-11T08:54:56.545Z,5.1
2022-08-11T08:56:55.809Z,4.9
2022-08-11T08:57:54.158Z,8.2
2022-08-11T08:58:51.902Z,5.4
2022-08-11T08:59:52.760Z,6.1
2022-08-11T09:00:52.870Z,9.0
2022-08-11T09:02:02.440Z,12.7
2022-08-11T09:02:52.596Z,10.8
2022-08-11T09:04:06.659Z,9.4
2022-08-11T09:04:51.779Z,5.7
2022-08-11T09:05:54.303Z,5.8
2022-08-11T09:06:52.407Z,5.4
2022-08-11T09:07:55.215Z,4.1
2022-08-11T09:08:51.933Z,4.0
2022-08-11T09:09:53.282Z,3.4
2022-08-11T09:11:02.130Z,7.8
2022-08-11T09:11:53.510Z,5.3
2022-08-11T09:14:04.987Z,9.9
2022-08-11T09:15:01.349Z,9.0
2022-08-11T09:15:56.171Z,6.7
2022-08-11T09:18:01.520Z,9.7
2022-08-11T09:18:52.198Z,6.7
2022-08-11T09:19:58.932Z,5.5
2022-08-11T09:20:51.349Z,6.9
2022-08-11T09:24:08.720Z,7.1
2022-08-11T09:25:01.757Z,6.4
2022-08-11T09:26:10.574Z,5.9
2022-08-11T09:27:00.219Z,5.4
2022-08-11T09:27:52.839Z,4.5
2022-08-11T09:28:53.188Z,5.0
2022-08-11T09:33:55.612Z,5.8
2022-08-11T09:35:53.054Z,3.2
2022-08-11T09:37:01.485Z,3.3
2022-08-11T09:38:01.065Z,4.2
2022-08-11T09:39:02.444Z,4.9
2022-08-11T09:40:00.919Z,4.2
2022-08-11T09:40:57.101Z,5.4
2022-08-11T09:42:00.414Z,5.2
2022-08-11T09:43:01.799Z,3.9
2022-08-11T09:44:03.979Z,4.9
2022-08-11T09:45:53.712Z,4.9
2022-08-11T09:48:53.889Z,5.9
2022-08-11T09:50:56.221Z,7.6
2022-08-11T09:51:56.510Z,7.3
2022-08-11T09:53:16.982Z,5.8
2022-08-11T09:54:03.502Z,6.0
2022-08-11T09:54:53.024Z,7.3
2022-08-11T09:55:52.489Z,6.5
2022-08-11T09:57:05.479Z,7.6
2022-08-11T09:58:00.574Z,10.8
2022-08-11T10:01:59.341Z,6.5
2022-08-11T10:07:04.909Z,6.3
2022-08-11T10:09:55.656Z,7.5
2022-08-11T10:11:58.477Z,7.8
2022-08-11T10:14:33.248Z,5.2
2022-08-11T10:15:04.437Z,6.5
2022-08-11T10:15:59.708Z,7.1
2022-08-11T10:18:53.496Z,6.8
2022-08-11T10:20:04.771Z,7.9
2022-08-11T10:20:55.160Z,7.0
2022-08-11T10:26:01.105Z,6.2
2022-08-11T10:27:00.336Z,7.6
2022-08-11T10:29:11.948Z,6.3
2022-08-11T10:30:01.036Z,5.3
2022-08-11T10:31:02.770Z,5.1
2022-08-11T10:34:57.815Z,6.5
2022-08-11T10:35:51.213Z,6.5
2022-08-11T10:38:08.305Z,9.0
2022-08-11T10:41:01.024Z,6.6
2022-08-11T10:44:55.676Z,9.3
2022-08-11T10:51:02.316Z,9.3
2022-08-11T10:54:02.876Z,9.1
2022-08-11T10:56:01.134Z,10.1
2022-08-11T10:57:00.960Z,9.3
2022-08-11T10:58:04.655Z,10.7
2022-08-11T10:58:52.895Z,10.7
2022-08-11T10:59:51.461Z,7.2
2022-08-11T11:00:57.117Z,9.7
2022-08-11T11:01:53.326Z,9.7
2022-08-11T11:03:21.917Z,9.4
2022-08-11T11:03:53.972Z,7.9
2022-08-11T11:05:09.563Z,10.7
2022-08-11T11:06:27.184Z,10.7
2022-08-11T11:06:54.703Z,12.3
2022-08-11T11:07:57.255Z,13.9
2022-08-11T11:08:55.493Z,13.9
2022-08-11T11:09:56.263Z,12.8
2022-08-11T11:10:51.198Z,13.6
2022-08-11T11:12:04.498Z,18.1
2022-08-11T11:13:06.023Z,16.8
2022-08-11T11:14:03.675Z,18.7
2022-08-11T11:15:03.297Z,21.1
2022-08-11T11:16:00.522Z,22.7
2022-08-11T11:17:56.758Z,22.4
2022-08-11T11:19:00.748Z,26.5
2022-08-11T11:19:57.785Z,29.9
2022-08-11T11:21:01.491Z,34.1
2022-08-11T11:21:55.217Z,34.1
2022-08-11T11:22:54.825Z,28.4
2022-08-11T11:24:05.211Z,28.1
2022-08-11T11:26:10.290Z,26.5
2022-08-11T11:27:03.864Z,26.0
2022-08-11T11:29:00.137Z,26.7
2022-08-11T11:29:57.922Z,26.7
2022-08-11T11:30:58.112Z,32.2
2022-08-11T11:34:12.816Z,25.3
2022-08-11T11:34:59.729Z,25.3
2022-08-11T11:36:06.706Z,20.7
2022-08-11T11:36:55.707Z,20.7
2022-08-11T11:38:04.124Z,18.8
2022-08-11T11:38:51.424Z,17.3
2022-08-11T11:39:51.794Z,17.6
2022-08-11T11:41:01.420Z,18.5
2022-08-11T11:41:53.594Z,19.7
2022-08-11T11:42:52.913Z,21.5
2022-08-11T11:43:51.976Z,27.4
2022-08-11T11:44:55.630Z,28.9
2022-08-11T11:45:51.347Z,25.6
2022-08-11T11:46:52.287Z,24.0
2022-08-11T11:47:55.959Z,30.1
2022-08-11T11:49:51.878Z,38.2
2022-08-11T11:53:52.292Z,33.9
2022-08-11T11:56:53.454Z,28.6
2022-08-11T11:58:02.533Z,27.4
2022-08-11T12:01:51.983Z,24.3
2022-08-11T12:03:53.400Z,22.8
2022-08-11T12:04:51.435Z,23.4
2022-08-11T12:07:01.225Z,24.8
2022-08-11T12:08:05.273Z,20.6
2022-08-11T12:08:54.930Z,23.6
2022-08-11T12:09:51.642Z,29.7
2022-08-11T12:11:04.968Z,40.4
2022-08-11T12:12:00.892Z,48.2
2022-08-11T12:13:00.723Z,51.6
2022-08-11T12:13:54.629Z,47.2
2022-08-11T12:14:51.648Z,49.9
2022-08-11T12:16:32.391Z,51.1
2022-08-11T12:16:51.458Z,55.9
2022-08-11T12:17:52.877Z,49.0
2022-08-11T12:18:56.643Z,52.4
2022-08-11T12:19:52.575Z,49.7
2022-08-11T12:20:51.527Z,49.0
2022-08-11T12:22:01.595Z,48.5
2022-08-11T12:23:00.578Z,52.7
2022-08-11T12:24:04.405Z,50.7
2022-08-11T12:25:00.603Z,53.9
2022-08-11T12:26:25.230Z,54.2
2022-08-11T12:27:17.073Z,51.5
2022-08-11T12:27:53.654Z,54.1
2022-08-11T12:28:51.803Z,48.1
2022-08-11T12:29:55.640Z,43.6
2022-08-11T12:30:54.240Z,43.8
2022-08-11T12:31:51.132Z,47.3
2022-08-11T12:34:51.678Z,46.1
2022-08-11T12:36:58.990Z,41.0
2022-08-11T12:38:03.667Z,38.1
2022-08-11T12:38:52.668Z,37.2
2022-08-11T12:40:17.187Z,39.7
2022-08-11T12:42:00.730Z,34.3
2022-08-11T12:44:00.956Z,24.0
2022-08-11T12:45:00.461Z,28.7
2022-08-11T12:46:51.255Z,36.2
2022-08-11T12:48:40.249Z,39.7
2022-08-11T12:49:07.805Z,35.8
2022-08-11T12:50:02.242Z,35.3
2022-08-11T12:51:06.500Z,36.7
2022-08-11T12:52:14.914Z,40.6
2022-08-11T12:52:54.908Z,36.2
2022-08-11T12:54:04.873Z,34.8
2022-08-11T12:54:59.922Z,40.5
2022-08-11T12:56:03.358Z,32.6
2022-08-11T12:58:00.662Z,30.8
2022-08-11T13:00:02.031Z,29.4
2022-08-11T13:01:01.068Z,30.3
2022-08-11T13:02:00.736Z,29.5
2022-08-11T13:04:00.395Z,29.2
2022-08-11T13:05:55.056Z,31.4
2022-08-11T13:06:52.975Z,44.2
2022-08-11T13:07:51.468Z,52.7
2022-08-11T13:08:51.723Z,58.7
2022-08-11T13:09:52.606Z,49.6
2022-08-11T13:11:02.291Z,42.4
2022-08-11T13:12:00.355Z,31.3
2022-08-11T13:12:51.197Z,35.7
2022-08-11T13:13:57.501Z,30.7
2022-08-11T13:14:51.413Z,31.4
2022-08-11T13:15:52.290Z,28.4
2022-08-11T13:17:01.324Z,34.6
2022-08-11T13:18:53.336Z,29.5
2022-08-11T13:19:52.085Z,31.4
2022-08-11T13:20:55.087Z,26.5
2022-08-11T13:22:55.237Z,26.9
2022-08-11T13:24:00.930Z,27.4
2022-08-11T13:28:52.156Z,19.6
2022-08-11T13:30:01.675Z,19.6
2022-08-11T13:31:01.992Z,23.7
2022-08-11T13:32:52.580Z,21.6
2022-08-11T13:35:54.512Z,19.3
2022-08-11T13:38:17.781Z,22.9
2022-08-11T13:39:51.235Z,22.7
2022-08-11T13:40:56.114Z,25.5
2022-08-11T13:41:51.433Z,24.2
2022-08-11T13:42:53.604Z,25.3
2022-08-11T13:43:52.728Z,23.1
2022-08-11T13:44:51.583Z,22.5
2022-08-11T13:47:53.469Z,20.2
2022-08-11T13:49:00.466Z,17.4
2022-08-11T13:52:53.301Z,19.6
2022-08-11T13:53:51.331Z,21.2
2022-08-11T13:58:08.470Z,16.0
2022-08-11T13:58:53.981Z,17.4
2022-08-11T14:00:53.168Z,13.3
2022-08-11T14:02:54.707Z,9.1
2022-08-11T14:05:53.512Z,11.2
2022-08-11T14:07:55.923Z,8.1
2022-08-11T14:08:54.003Z,6.3
2022-08-11T14:09:58.218Z,6.3
2022-08-11T14:12:22.402Z,18.1
2022-08-11T14:13:15.162Z,20.3
2022-08-11T14:14:57.180Z,22.5
2022-08-11T14:15:53.033Z,25.0
2022-08-11T14:16:53.891Z,22.9
2022-08-11T14:17:55.599Z,27.1
2022-08-11T14:18:55.365Z,27.5
2022-08-11T14:19:53.705Z,25.8
2022-08-11T14:21:11.778Z,27.2
2022-08-11T14:22:07.351Z,32.4
2022-08-11T14:22:52.855Z,26.5
2022-08-11T14:24:01.416Z,23.9
2022-08-11T14:24:51.026Z,19.7
2022-08-11T14:28:33.762Z,25.0
2022-08-11T14:29:51.162Z,15.9
2022-08-11T14:31:01.318Z,15.2
2022-08-11T14:31:55.449Z,16.4
2022-08-11T14:32:55.366Z,21.0
2022-08-11T14:36:55.035Z,14.7
2022-08-11T14:37:51.552Z,11.7
2022-08-11T14:38:53.832Z,10.4
2022-08-11T14:39:59.388Z,11.3
2022-08-11T14:41:01.158Z,8.4
2022-08-11T14:42:11.894Z,10.6
2022-08-11T14:43:00.632Z,9.1
2022-08-11T14:44:14.188Z,7.2
2022-08-11T14:45:04.621Z,8.4
2022-08-11T14:46:01.697Z,9.7
2022-08-11T14:47:00.760Z,10.6
2022-08-11T14:47:53.917Z,12.3
2022-08-11T14:48:51.192Z,13.0
2022-08-11T14:50:05.008Z,14.8
2022-08-11T14:50:51.326Z,9.9
2022-08-11T14:52:55.249Z,8.5
2022-08-11T14:54:00.674Z,12.7
2022-08-11T14:55:03.101Z,13.4
2022-08-11T14:56:01.211Z,11.3
2022-08-11T14:56:51.075Z,12.0
2022-08-11T14:57:55.231Z,12.3
2022-08-11T14:58:51.378Z,15.1
2022-08-11T14:59:51.676Z,12.3
2022-08-11T15:00:54.894Z,10.3
2022-08-11T15:02:01.079Z,7.9
2022-08-11T15:03:00.982Z,7.2
2022-08-11T15:04:01.212Z,9.2
2022-08-11T15:04:51.885Z,5.7
2022-08-11T15:05:58.019Z,10.0
2022-08-11T15:06:53.539Z,12.1
2022-08-11T15:07:52.553Z,15.7
2022-08-11T15:08:58.567Z,27.9
2022-08-11T15:10:12.288Z,26.4
2022-08-11T15:10:52.906Z,31.2
2022-08-11T15:12:00.344Z,29.2
2022-08-11T15:12:51.284Z,24.0
2022-08-11T15:13:51.104Z,19.1
2022-08-11T15:15:01.777Z,20.2
2022-08-11T15:16:05.234Z,17.2
2022-08-11T15:20:02.009Z,14.8
2022-08-11T15:21:01.194Z,9.6
2022-08-11T15:22:01.206Z,7.7
2022-08-11T15:23:00.180Z,8.7
2022-08-11T15:24:00.188Z,10.2
2022-08-11T15:25:56.291Z,6.6
2022-08-11T15:28:03.698Z,7.9
2022-08-11T15:30:03.330Z,6.7
2022-08-11T15:31:05.077Z,7.2
2022-08-11T15:32:00.951Z,7.6
2022-08-11T15:33:03.335Z,10.7
2022-08-11T15:37:02.920Z,10.0
2022-08-11T15:37:57.630Z,8.9
2022-08-11T15:38:59.528Z,8.8
2022-08-11T15:40:31.373Z,10.6
2022-08-11T15:41:04.123Z,11.0
2022-08-11T15:42:10.105Z,8.3
2022-08-11T15:44:04.274Z,6.0
2022-08-11T15:45:07.478Z,6.9
2022-08-11T15:47:58.510Z,8.2
2022-08-11T15:50:56.603Z,5.1
2022-08-11T15:52:05.437Z,6.0
2022-08-11T15:53:56.742Z,7.1
2022-08-11T15:55:51.685Z,6.2
2022-08-11T15:59:10.542Z,6.4
2022-08-11T16:01:04.159Z,6.6
2022-08-11T16:02:03.685Z,6.2
2022-08-11T16:05:52.997Z,9.4
2022-08-11T16:06:55.113Z,7.2
2022-08-11T16:08:52.331Z,6.7
2022-08-11T16:10:00.258Z,7.7
2022-08-11T16:10:51.746Z,9.2
2022-08-11T16:11:52.228Z,8.5
2022-08-11T16:13:08.382Z,7.6
2022-08-11T16:14:02.345Z,6.7
2022-08-11T16:15:03.285Z,9.8
2022-08-11T16:16:03.740Z,7.3
2022-08-11T16:16:54.287Z,8.4
2022-08-11T16:17:54.746Z,5.9
2022-08-11T16:18:56.662Z,10.7
2022-08-11T16:19:53.997Z,6.5
2022-08-11T16:20:55.596Z,5.5
2022-08-11T16:21:53.863Z,2.9
2022-08-11T16:23:01.229Z,4.4
2022-08-11T16:23:54.154Z,5.8
2022-08-11T16:27:01.997Z,4.4
2022-08-11T16:27:03.002Z,7.6
2022-08-11T16:27:11.606Z,5.1
2022-08-11T16:27:54.160Z,6.6
2022-08-11T16:28:53.394Z,6.3
2022-08-11T16:29:52.520Z,4.1
2022-08-11T16:30:53.790Z,4.8
2022-08-11T16:32:01.729Z,8.9
2022-08-11T16:32:53.440Z,7.1
2022-08-11T16:33:53.276Z,6.5
2022-08-11T16:35:09.164Z,6.3
2022-08-11T16:36:00.526Z,6.2